BCS4KB EDDK-LKPR
Flight info
| Callsign | BCS4KB |
|---|---|
| Flight time | 0h 57m |
| Altitude | 31000 |
| Route | KUMIK1B/31R KUMIK L603 TESGA DCT ESATI DCT BOREP DCT TONSU Z35 ODOMO DCT LOMKI |
| Aircraft | B77L/H-SDE1E2E3FGHIJ2J3J4J5M1RWXY/LB1D1 |
Departure
| Time | 2026-04-23 19:35 |
|---|---|
| Airport | Cologne Bonn Airport (EDDK) |
Arrival
| Time | 2026-04-23 20:32 |
|---|---|
| Airport | Václav Havel Airport Prague (LKPR) |
| Time | Latitude | Longitude | Altitude | Speed | Heading |
|---|---|---|---|---|---|
| 2026-04-23 18:55 | 50.87228 | 7.13278 | 234 ft | 0 kts | 227° |
| 2026-04-23 19:22 | 50.87240 | 7.13299 | 247 ft | 4 kts | 227° |
| 2026-04-23 19:23 | 50.87258 | 7.13330 | 249 ft | 4 kts | 224° |
| 2026-04-23 19:23 | 50.87279 | 7.13355 | 239 ft | 4 kts | 201° |
| 2026-04-23 19:23 | 50.87304 | 7.13362 | 239 ft | 4 kts | 164° |
| 2026-04-23 19:24 | 50.87320 | 7.13349 | 239 ft | 0 kts | 137° |
| 2026-04-23 19:26 | 50.87319 | 7.13351 | 239 ft | 2 kts | 132° |
| 2026-04-23 19:26 | 50.87321 | 7.13438 | 241 ft | 11 kts | 92° |
| 2026-04-23 19:27 | 50.87231 | 7.13639 | 245 ft | 12 kts | 136° |
| 2026-04-23 19:27 | 50.87004 | 7.13968 | 253 ft | 14 kts | 138° |
| 2026-04-23 19:28 | 50.86844 | 7.14198 | 259 ft | 18 kts | 137° |
| 2026-04-23 19:28 | 50.86798 | 7.14266 | 261 ft | 9 kts | 137° |
| 2026-04-23 19:29 | 50.86732 | 7.14360 | 264 ft | 13 kts | 137° |
| 2026-04-23 19:29 | 50.86553 | 7.14412 | 262 ft | 14 kts | 158° |
| 2026-04-23 19:30 | 50.86401 | 7.14622 | 268 ft | 15 kts | 137° |
| 2026-04-23 19:30 | 50.86322 | 7.14736 | 270 ft | 16 kts | 137° |
| 2026-04-23 19:30 | 50.86129 | 7.15017 | 278 ft | 21 kts | 137° |
| 2026-04-23 19:31 | 50.86005 | 7.15198 | 282 ft | 29 kts | 137° |
| 2026-04-23 19:31 | 50.85852 | 7.15418 | 295 ft | 28 kts | 137° |
| 2026-04-23 19:31 | 50.85708 | 7.15627 | 301 ft | 28 kts | 137° |
| 2026-04-23 19:31 | 50.85564 | 7.15834 | 305 ft | 25 kts | 137° |
| 2026-04-23 19:32 | 50.85501 | 7.16009 | 309 ft | 19 kts | 71° |
| 2026-04-23 19:32 | 50.85579 | 7.16160 | 311 ft | 16 kts | 47° |
| 2026-04-23 19:32 | 50.85608 | 7.16210 | 313 ft | 0 kts | 47° |
| 2026-04-23 19:33 | 50.85608 | 7.16211 | 314 ft | 1 kts | 47° |
| 2026-04-23 19:33 | 50.85717 | 7.16277 | 311 ft | 12 kts | 323° |
| 2026-04-23 19:34 | 50.85725 | 7.16264 | 311 ft | 1 kts | 315° |
| 2026-04-23 19:34 | 50.85787 | 7.16166 | 314 ft | 29 kts | 315° |
| 2026-04-23 19:34 | 50.86887 | 7.14580 | 365 ft | 177 kts | 317° |
| 2026-04-23 19:35 | 50.87798 | 7.13224 | 1216 ft | 182 kts | 317° |
| 2026-04-23 19:35 | 50.88755 | 7.11977 | 2342 ft | 174 kts | 331° |
| 2026-04-23 19:35 | 50.89985 | 7.11554 | 2629 ft | 196 kts | 6° |
| 2026-04-23 19:35 | 50.91132 | 7.12066 | 2818 ft | 218 kts | 19° |
| 2026-04-23 19:36 | 50.92370 | 7.12900 | 3229 ft | 232 kts | 23° |
| 2026-04-23 19:36 | 50.93658 | 7.14520 | 3802 ft | 247 kts | 53° |
| 2026-04-23 19:36 | 50.94448 | 7.16890 | 4380 ft | 257 kts | 61° |
| 2026-04-23 19:36 | 50.95252 | 7.19450 | 5241 ft | 260 kts | 60° |
| 2026-04-23 19:37 | 50.96072 | 7.22031 | 6135 ft | 263 kts | 60° |
| 2026-04-23 19:37 | 50.96897 | 7.24643 | 6992 ft | 267 kts | 60° |
| 2026-04-23 19:37 | 50.97735 | 7.27294 | 7802 ft | 271 kts | 61° |
| 2026-04-23 19:37 | 50.98542 | 7.29849 | 8575 ft | 274 kts | 61° |
| 2026-04-23 19:38 | 50.99429 | 7.32664 | 9422 ft | 278 kts | 61° |
| 2026-04-23 19:38 | 51.00289 | 7.35392 | 10214 ft | 282 kts | 61° |
| 2026-04-23 19:38 | 51.01180 | 7.38219 | 10842 ft | 292 kts | 61° |
| 2026-04-23 19:38 | 51.01907 | 7.41344 | 10986 ft | 318 kts | 81° |
| 2026-04-23 19:39 | 51.01675 | 7.44971 | 11190 ft | 344 kts | 104° |
| 2026-04-23 19:39 | 51.00918 | 7.48730 | 11386 ft | 369 kts | 106° |
| 2026-04-23 19:39 | 51.00109 | 7.52664 | 12017 ft | 380 kts | 105° |
| 2026-04-23 19:39 | 50.99289 | 7.56687 | 12843 ft | 385 kts | 105° |
| 2026-04-23 19:40 | 50.98470 | 7.60758 | 13785 ft | 389 kts | 105° |
| 2026-04-23 19:40 | 50.97650 | 7.64874 | 14609 ft | 394 kts | 105° |
| 2026-04-23 19:40 | 50.96824 | 7.69049 | 15445 ft | 397 kts | 105° |
| 2026-04-23 19:40 | 50.95995 | 7.73252 | 16270 ft | 401 kts | 105° |
| 2026-04-23 19:41 | 50.95155 | 7.77498 | 17077 ft | 405 kts | 105° |
| 2026-04-23 19:41 | 50.94280 | 7.81768 | 17882 ft | 408 kts | 109° |
| 2026-04-23 19:41 | 50.92958 | 7.85777 | 18527 ft | 416 kts | 122° |
| 2026-04-23 19:41 | 50.91280 | 7.89551 | 19162 ft | 420 kts | 123° |
| 2026-04-23 19:42 | 50.89589 | 7.93348 | 19904 ft | 422 kts | 123° |
| 2026-04-23 19:42 | 50.87924 | 7.97202 | 20644 ft | 424 kts | 122° |
| 2026-04-23 19:42 | 50.86282 | 8.01101 | 21314 ft | 427 kts | 122° |
| 2026-04-23 19:42 | 50.84635 | 8.05049 | 21935 ft | 432 kts | 122° |
| 2026-04-23 19:43 | 50.82971 | 8.09030 | 22590 ft | 435 kts | 122° |
| 2026-04-23 19:43 | 50.81292 | 8.13016 | 23250 ft | 438 kts | 122° |
| 2026-04-23 19:43 | 50.79591 | 8.17038 | 23895 ft | 442 kts | 122° |
| 2026-04-23 19:43 | 50.77874 | 8.21092 | 24421 ft | 445 kts | 122° |
| 2026-04-23 19:44 | 50.76144 | 8.25174 | 24982 ft | 448 kts | 122° |
| 2026-04-23 19:44 | 50.74407 | 8.29270 | 25552 ft | 450 kts | 122° |
| 2026-04-23 19:44 | 50.72658 | 8.33384 | 26112 ft | 452 kts | 122° |
| 2026-04-23 19:44 | 50.70764 | 8.37388 | 26649 ft | 456 kts | 130° |
| 2026-04-23 19:45 | 50.68487 | 8.40889 | 27156 ft | 461 kts | 138° |
| 2026-04-23 19:45 | 50.65905 | 8.43945 | 27629 ft | 467 kts | 145° |
| 2026-04-23 19:45 | 50.63053 | 8.46463 | 28048 ft | 472 kts | 150° |
| 2026-04-23 19:45 | 50.60123 | 8.48844 | 28545 ft | 475 kts | 150° |
| 2026-04-23 19:46 | 50.57188 | 8.51244 | 29062 ft | 476 kts | 150° |
| 2026-04-23 19:46 | 50.54244 | 8.53692 | 29576 ft | 478 kts | 149° |
| 2026-04-23 19:46 | 50.51351 | 8.56128 | 30035 ft | 479 kts | 149° |
| 2026-04-23 19:46 | 50.48413 | 8.58610 | 30504 ft | 479 kts | 148° |
| 2026-04-23 19:47 | 50.46476 | 8.60381 | 30832 ft | 477 kts | 144° |
| 2026-04-23 19:47 | 50.42922 | 8.64376 | 31536 ft | 471 kts | 139° |
| 2026-04-23 19:47 | 50.40801 | 8.67295 | 32006 ft | 467 kts | 134° |
| 2026-04-23 19:47 | 50.38481 | 8.70852 | 32501 ft | 465 kts | 133° |
| 2026-04-23 19:48 | 50.36172 | 8.74384 | 32948 ft | 463 kts | 133° |
| 2026-04-23 19:48 | 50.34640 | 8.76714 | 33235 ft | 463 kts | 133° |
| 2026-04-23 19:48 | 50.32719 | 8.79623 | 33251 ft | 467 kts | 133° |
| 2026-04-23 19:49 | 50.28673 | 8.85708 | 33258 ft | 464 kts | 133° |
| 2026-04-23 19:49 | 50.24878 | 8.91384 | 33254 ft | 458 kts | 133° |
| 2026-04-23 19:50 | 50.20261 | 8.98274 | 33254 ft | 460 kts | 134° |
| 2026-04-23 19:50 | 50.15624 | 9.05178 | 33254 ft | 460 kts | 134° |
| 2026-04-23 19:51 | 50.10985 | 9.12065 | 33259 ft | 461 kts | 134° |
| 2026-04-23 19:51 | 50.07167 | 9.19880 | 33280 ft | 453 kts | 112° |
| 2026-04-23 19:52 | 50.05617 | 9.27691 | 33248 ft | 451 kts | 96° |
| 2026-04-23 19:52 | 50.04979 | 9.38998 | 33271 ft | 453 kts | 94° |
| 2026-04-23 19:53 | 50.04414 | 9.48809 | 33273 ft | 456 kts | 95° |
| 2026-04-23 19:53 | 50.03800 | 9.58644 | 33260 ft | 457 kts | 95° |
| 2026-04-23 19:54 | 50.03160 | 9.68492 | 33264 ft | 457 kts | 95° |
| 2026-04-23 19:54 | 50.02511 | 9.78332 | 33259 ft | 457 kts | 95° |
| 2026-04-23 19:55 | 50.01855 | 9.88141 | 33265 ft | 456 kts | 95° |
| 2026-04-23 19:55 | 50.01330 | 9.95928 | 33265 ft | 455 kts | 95° |
| 2026-04-23 19:56 | 50.00661 | 10.05719 | 33271 ft | 455 kts | 95° |
| 2026-04-23 19:56 | 49.99986 | 10.15490 | 33268 ft | 454 kts | 95° |
| 2026-04-23 19:57 | 49.99303 | 10.25254 | 33267 ft | 454 kts | 95° |
| 2026-04-23 19:57 | 49.98613 | 10.35007 | 33265 ft | 454 kts | 95° |
| 2026-04-23 19:58 | 49.97914 | 10.44755 | 33258 ft | 454 kts | 95° |
| 2026-04-23 19:58 | 49.97213 | 10.54447 | 33275 ft | 454 kts | 94° |
| 2026-04-23 19:59 | 49.96590 | 10.64198 | 33261 ft | 453 kts | 90° |
| 2026-04-23 19:59 | 49.96659 | 10.73960 | 33254 ft | 452 kts | 87° |
| 2026-04-23 20:00 | 49.96767 | 10.83725 | 33239 ft | 452 kts | 87° |
| 2026-04-23 20:00 | 49.96843 | 10.93477 | 33236 ft | 452 kts | 88° |
| 2026-04-23 20:01 | 49.96903 | 11.03240 | 33236 ft | 451 kts | 87° |
| 2026-04-23 20:01 | 49.96956 | 11.13010 | 33234 ft | 451 kts | 87° |
| 2026-04-23 20:02 | 49.96993 | 11.22773 | 33231 ft | 452 kts | 89° |
| 2026-04-23 20:02 | 49.96719 | 11.32541 | 33231 ft | 452 kts | 91° |
| 2026-04-23 20:03 | 49.96366 | 11.42301 | 33230 ft | 452 kts | 91° |
| 2026-04-23 20:03 | 49.96030 | 11.52068 | 33240 ft | 453 kts | 90° |
| 2026-04-23 20:04 | 49.95696 | 11.61829 | 33222 ft | 452 kts | 90° |
| 2026-04-23 20:04 | 49.95361 | 11.71580 | 33227 ft | 452 kts | 90° |
| 2026-04-23 20:05 | 49.95028 | 11.81251 | 33222 ft | 451 kts | 90° |
| 2026-04-23 20:05 | 49.94684 | 11.90995 | 33242 ft | 451 kts | 90° |
| 2026-04-23 20:06 | 49.94406 | 12.00728 | 33234 ft | 451 kts | 89° |
| 2026-04-23 20:06 | 49.94227 | 12.10450 | 33221 ft | 450 kts | 89° |
| 2026-04-23 20:07 | 49.94027 | 12.20171 | 33222 ft | 450 kts | 89° |
| 2026-04-23 20:07 | 49.93807 | 12.29879 | 33219 ft | 450 kts | 89° |
| 2026-04-23 20:08 | 49.93566 | 12.39596 | 33218 ft | 451 kts | 89° |
| 2026-04-23 20:08 | 49.93287 | 12.49323 | 33218 ft | 451 kts | 89° |
| 2026-04-23 20:09 | 49.92999 | 12.59061 | 32886 ft | 453 kts | 89° |
| 2026-04-23 20:09 | 49.92853 | 12.63989 | 32160 ft | 456 kts | 89° |
| 2026-04-23 20:09 | 49.92706 | 12.68822 | 31628 ft | 450 kts | 89° |
| 2026-04-23 20:09 | 49.92557 | 12.73649 | 31044 ft | 446 kts | 89° |
| 2026-04-23 20:10 | 49.92456 | 12.76884 | 30659 ft | 443 kts | 89° |
| 2026-04-23 20:10 | 49.92258 | 12.83173 | 29891 ft | 438 kts | 89° |
| 2026-04-23 20:10 | 49.92108 | 12.87887 | 29267 ft | 434 kts | 89° |
| 2026-04-23 20:10 | 49.91959 | 12.92546 | 28698 ft | 430 kts | 89° |
| 2026-04-23 20:11 | 49.91809 | 12.97153 | 28143 ft | 426 kts | 89° |
| 2026-04-23 20:11 | 49.91659 | 13.01722 | 27572 ft | 422 kts | 89° |
| 2026-04-23 20:11 | 49.91509 | 13.06250 | 27045 ft | 419 kts | 89° |
| 2026-04-23 20:11 | 49.91358 | 13.10749 | 26507 ft | 416 kts | 89° |
| 2026-04-23 20:12 | 49.91207 | 13.15214 | 25984 ft | 413 kts | 89° |
| 2026-04-23 20:12 | 49.91055 | 13.19650 | 25461 ft | 410 kts | 89° |
| 2026-04-23 20:12 | 49.90900 | 13.24055 | 24953 ft | 408 kts | 88° |
| 2026-04-23 20:12 | 49.90750 | 13.28433 | 24428 ft | 406 kts | 88° |
| 2026-04-23 20:13 | 49.90602 | 13.32799 | 23928 ft | 404 kts | 88° |
| 2026-04-23 20:13 | 49.90453 | 13.37152 | 23348 ft | 403 kts | 88° |
| 2026-04-23 20:13 | 49.90303 | 13.41474 | 22811 ft | 398 kts | 88° |
| 2026-04-23 20:13 | 49.90449 | 13.45685 | 22282 ft | 387 kts | 74° |
| 2026-04-23 20:14 | 49.91236 | 13.49628 | 21821 ft | 379 kts | 64° |
| 2026-04-23 20:14 | 49.92448 | 13.53208 | 21337 ft | 372 kts | 53° |
| 2026-04-23 20:14 | 49.93990 | 13.56352 | 20882 ft | 367 kts | 50° |
| 2026-04-23 20:14 | 49.95499 | 13.59323 | 20434 ft | 365 kts | 50° |
| 2026-04-23 20:15 | 49.97065 | 13.62421 | 19977 ft | 364 kts | 50° |
| 2026-04-23 20:15 | 49.98617 | 13.65521 | 19521 ft | 362 kts | 50° |
| 2026-04-23 20:15 | 50.00155 | 13.68620 | 19060 ft | 362 kts | 50° |
| 2026-04-23 20:15 | 50.01686 | 13.71716 | 18608 ft | 361 kts | 50° |
| 2026-04-23 20:16 | 50.03212 | 13.74814 | 18094 ft | 361 kts | 50° |
| 2026-04-23 20:16 | 50.04734 | 13.77912 | 17594 ft | 359 kts | 50° |
| 2026-04-23 20:16 | 50.06191 | 13.80996 | 17136 ft | 358 kts | 55° |
| 2026-04-23 20:16 | 50.07341 | 13.84447 | 16662 ft | 360 kts | 64° |
| 2026-04-23 20:17 | 50.08187 | 13.88132 | 16206 ft | 362 kts | 71° |
| 2026-04-23 20:17 | 50.08703 | 13.91978 | 15743 ft | 363 kts | 76° |
| 2026-04-23 20:17 | 50.09129 | 13.95854 | 15279 ft | 363 kts | 76° |
| 2026-04-23 20:17 | 50.09548 | 13.99728 | 14827 ft | 363 kts | 76° |
| 2026-04-23 20:18 | 50.09969 | 14.03606 | 14356 ft | 363 kts | 76° |
| 2026-04-23 20:18 | 50.10397 | 14.07486 | 13896 ft | 363 kts | 76° |
| 2026-04-23 20:18 | 50.10826 | 14.11362 | 13385 ft | 363 kts | 76° |
| 2026-04-23 20:18 | 50.11258 | 14.15234 | 12894 ft | 362 kts | 76° |
| 2026-04-23 20:19 | 50.11690 | 14.19108 | 12426 ft | 362 kts | 76° |
| 2026-04-23 20:19 | 50.12120 | 14.22969 | 11965 ft | 361 kts | 76° |
| 2026-04-23 20:19 | 50.12549 | 14.26816 | 11509 ft | 360 kts | 76° |
| 2026-04-23 20:19 | 50.12954 | 14.30472 | 11103 ft | 359 kts | 76° |
| 2026-04-23 20:20 | 50.13381 | 14.34358 | 10973 ft | 347 kts | 76° |
| 2026-04-23 20:20 | 50.13535 | 14.37916 | 10768 ft | 324 kts | 93° |
| 2026-04-23 20:20 | 50.13052 | 14.40811 | 10638 ft | 309 kts | 108° |
| 2026-04-23 20:20 | 50.12024 | 14.43718 | 10522 ft | 305 kts | 122° |
| 2026-04-23 20:21 | 50.10741 | 14.46305 | 10397 ft | 297 kts | 124° |
| 2026-04-23 20:21 | 50.09502 | 14.48777 | 10276 ft | 289 kts | 124° |
| 2026-04-23 20:21 | 50.08295 | 14.51218 | 10143 ft | 281 kts | 123° |
| 2026-04-23 20:21 | 50.07102 | 14.53660 | 9828 ft | 286 kts | 123° |
| 2026-04-23 20:22 | 50.05886 | 14.56158 | 9517 ft | 292 kts | 123° |
| 2026-04-23 20:22 | 50.04655 | 14.58679 | 9170 ft | 294 kts | 123° |
| 2026-04-23 20:22 | 50.03422 | 14.61202 | 8819 ft | 291 kts | 123° |
| 2026-04-23 20:22 | 50.02228 | 14.63634 | 8617 ft | 274 kts | 123° |
| 2026-04-23 20:23 | 50.01093 | 14.65945 | 8269 ft | 267 kts | 123° |
| 2026-04-23 20:23 | 49.99968 | 14.68242 | 7902 ft | 265 kts | 123° |
| 2026-04-23 20:23 | 49.98646 | 14.70163 | 7512 ft | 261 kts | 154° |
| 2026-04-23 20:23 | 49.96922 | 14.70721 | 7242 ft | 249 kts | 188° |
| 2026-04-23 20:24 | 49.95351 | 14.69951 | 7039 ft | 229 kts | 217° |
| 2026-04-23 20:24 | 49.94214 | 14.68379 | 6739 ft | 211 kts | 241° |
| 2026-04-23 20:24 | 49.93599 | 14.66451 | 6456 ft | 191 kts | 263° |
| 2026-04-23 20:24 | 49.93388 | 14.64456 | 6285 ft | 187 kts | 275° |
| 2026-04-23 20:25 | 49.93576 | 14.62524 | 6067 ft | 177 kts | 299° |
| 2026-04-23 20:25 | 49.94096 | 14.60786 | 5922 ft | 179 kts | 300° |
| 2026-04-23 20:25 | 49.94606 | 14.59017 | 5797 ft | 181 kts | 299° |
| 2026-04-23 20:25 | 49.95119 | 14.57239 | 5550 ft | 177 kts | 299° |
| 2026-04-23 20:26 | 49.95682 | 14.55590 | 5344 ft | 173 kts | 309° |
| 2026-04-23 20:26 | 49.96416 | 14.54119 | 5161 ft | 173 kts | 312° |
| 2026-04-23 20:26 | 49.97161 | 14.52646 | 4942 ft | 173 kts | 311° |
| 2026-04-23 20:26 | 49.97876 | 14.51196 | 4743 ft | 163 kts | 311° |
| 2026-04-23 20:27 | 49.98551 | 14.49814 | 4528 ft | 159 kts | 310° |
| 2026-04-23 20:27 | 49.99204 | 14.48474 | 4312 ft | 151 kts | 310° |
| 2026-04-23 20:27 | 49.99810 | 14.47226 | 4166 ft | 146 kts | 310° |
| 2026-04-23 20:27 | 50.00423 | 14.45967 | 4075 ft | 146 kts | 310° |
| 2026-04-23 20:28 | 50.01043 | 14.44688 | 3876 ft | 147 kts | 310° |
| 2026-04-23 20:28 | 50.01645 | 14.43449 | 3666 ft | 139 kts | 310° |
| 2026-04-23 20:28 | 50.02215 | 14.42269 | 3493 ft | 134 kts | 310° |
| 2026-04-23 20:28 | 50.02771 | 14.41122 | 3358 ft | 135 kts | 310° |
| 2026-04-23 20:29 | 50.03341 | 14.39947 | 3167 ft | 137 kts | 310° |
| 2026-04-23 20:29 | 50.03912 | 14.38767 | 2982 ft | 136 kts | 309° |
| 2026-04-23 20:29 | 50.04482 | 14.37591 | 2791 ft | 136 kts | 309° |
| 2026-04-23 20:29 | 50.05044 | 14.36415 | 2609 ft | 136 kts | 309° |
| 2026-04-23 20:30 | 50.05617 | 14.35244 | 2438 ft | 136 kts | 309° |
| 2026-04-23 20:30 | 50.06741 | 14.32895 | 2046 ft | 138 kts | 309° |
| 2026-04-23 20:30 | 50.07320 | 14.31715 | 1823 ft | 135 kts | 310° |
| 2026-04-23 20:31 | 50.07897 | 14.30529 | 1654 ft | 141 kts | 308° |
| 2026-04-23 20:31 | 50.08512 | 14.29251 | 1450 ft | 153 kts | 308° |
| 2026-04-23 20:31 | 50.09151 | 14.27927 | 1269 ft | 151 kts | 309° |
| 2026-04-23 20:31 | 50.09742 | 14.26742 | 1214 ft | 120 kts | 306° |
| 2026-04-23 20:32 | 50.10148 | 14.25889 | 1190 ft | 76 kts | 307° |
| 2026-04-23 20:32 | 50.10370 | 14.25428 | 1175 ft | 21 kts | 307° |
| 2026-04-23 20:32 | 50.10427 | 14.25381 | 1177 ft | 8 kts | 39° |
| 2026-04-23 20:32 | 50.10452 | 14.25453 | 1177 ft | 8 kts | 74° |
| 2026-04-23 20:33 | 50.10462 | 14.25535 | 1181 ft | 8 kts | 79° |
| 2026-04-23 20:33 | 50.10471 | 14.25608 | 1188 ft | 8 kts | 79° |
| 2026-04-23 20:33 | 50.10481 | 14.25689 | 1188 ft | 8 kts | 79° |
| 2026-04-23 20:33 | 50.10491 | 14.25772 | 1189 ft | 8 kts | 79° |
| 2026-04-23 20:34 | 50.10501 | 14.25856 | 1190 ft | 8 kts | 79° |
| 2026-04-23 20:34 | 50.10519 | 14.25938 | 1192 ft | 9 kts | 61° |
| 2026-04-23 20:34 | 50.10582 | 14.26022 | 1190 ft | 16 kts | 33° |
| 2026-04-23 20:34 | 50.10683 | 14.26119 | 1179 ft | 18 kts | 35° |
| 2026-04-23 20:35 | 50.10786 | 14.26235 | 1175 ft | 19 kts | 34° |
| 2026-04-23 20:35 | 50.10899 | 14.26356 | 1172 ft | 20 kts | 35° |
| 2026-04-23 20:35 | 50.10975 | 14.26435 | 1173 ft | 20 kts | 34° |
| 2026-04-23 20:35 | 50.11064 | 14.26534 | 1174 ft | 13 kts | 46° |
| 2026-04-23 20:36 | 50.11106 | 14.26662 | 1175 ft | 13 kts | 66° |
| 2026-04-23 20:36 | 50.11148 | 14.26805 | 1174 ft | 17 kts | 66° |
| 2026-04-23 20:36 | 50.11202 | 14.26989 | 1176 ft | 19 kts | 65° |
| 2026-04-23 20:36 | 50.11260 | 14.27179 | 1176 ft | 19 kts | 65° |
| 2026-04-23 20:37 | 50.11316 | 14.27368 | 1172 ft | 19 kts | 64° |
| 2026-04-23 20:37 | 50.11361 | 14.27517 | 1169 ft | 6 kts | 65° |
| 2026-04-23 20:37 | 50.11373 | 14.27555 | 1170 ft | 4 kts | 66° |
| 2026-04-23 20:37 | 50.11368 | 14.27597 | 1172 ft | 4 kts | 121° |
| 2026-04-23 20:38 | 50.11341 | 14.27618 | 1174 ft | 5 kts | 158° |
| 2026-04-23 20:38 | 50.11312 | 14.27638 | 1172 ft | 0 kts | 156° |